Impacts METAR Board INFO
IDs:

KPDX - Portland Intl Arpt, OR, US

Updated at: 2112 UTC 17 Dec 2017
Potential Impact None Slight Moderate High
Time17/09Z 17/10Z 17/11Z 17/12Z 17/13Z 17/14Z 17/15Z 17/16Z 17/17Z 17/18Z 17/19Z 17/20Z 17/21Z
VIS10 10 10 10 10 6 6 4 6 7 10 10 10
CIG60 42 45 33 32 24 22 21 19 20 27 34 34
CoverOVCOVCOVCOVCOVCOVCOVCOVCOVCOVCOVCOVCOVC
FltCatVFRVFRVFRVFRVFRMVFRMVFRMVFRMVFRMVFRMVFRVFRVFR
WX-------DZ---DZ BR-DZ BR-DZ BR-DZ BR-DZ------
WDir100110110100130110120120110130100120130
WSpd5 6 6 4 4 6 6 8 7 4 6 5 4
WGst-- -- -- -- -- -- -- -- -- -- -- -- --
Raw hourly METARs
KPDX 170853Z 10005KT 10SM FEW018 OVC060 06/04 A3032 RMK AO2 SLP265 60000 T00560044 58006 $
KPDX 170953Z 11006KT 10SM FEW020 BKN042 OVC050 06/04 A3030 RMK AO2 RAB40E49 SLP260 P0000 T00560044 $
KPDX 171053Z 11006KT 10SM OVC045 05/04 A3029 RMK AO2 SLP255 T00500044 $
KPDX 171153Z 10004KT 10SM -DZ OVC033 05/04 A3029 RMK AO2 DZB49 SLP256 P0000 60000 70002 T00500044 10061 20050 55009 $
KPDX 171253Z 13004KT 10SM BKN032 OVC039 06/04 A3027 RMK AO2 DZE46 SLP250 P0000 T00560039 $
KPDX 171353Z 11006KT 6SM -DZ BR OVC024 06/04 A3026 RMK AO2 DZB33 SLP246 P0001 T00560044 $
KPDX 171453Z 12006KT 6SM -DZ BR BKN022 OVC030 06/04 A3026 RMK AO2 SLP246 P0000 60001 T00560044 56009 $
KPDX 171553Z 12008KT 4SM -DZ BR SCT007 BKN021 OVC032 06/05 A3025 RMK AO2 SLP241 P0001 T00560050 $
KPDX 171653Z 11007KT 6SM -DZ BR FEW007 OVC019 06/05 A3024 RMK AO2 SLP240 P0000 T00560050 $
KPDX 171753Z 13004KT 7SM -DZ FEW007 BKN020 OVC027 06/06 A3025 RMK AO2 SLP241 P0000 60002 T00610056 10061 20050 55005 $
KPDX 171853Z 10006KT 10SM FEW007 BKN027 OVC036 07/06 A3024 RMK AO2 DZE49 SLP240 P0000 T00670056 $
KPDX 171953Z 12005KT 10SM FEW007 BKN034 OVC045 07/06 A3022 RMK AO2 SLP233 T00720056 $
KPDX 172053Z 13004KT 10SM FEW008 BKN034 OVC045 08/06 A3020 RMK AO2 SLP225 60000 T00830056 58016 $